You are not logged in, Click here to log in
機場資訊:EPWA Welcome to Taiwan Airways 台灣虛擬航空
ICAO: EPWA Country: 波蘭共和國首都華沙奧肯切區的國際機場
Latitude: 52.1657 Longitude: 20.9671
Total Arrivals: 3 Total Departures: 2
Latest Arrival: CMGEL3 (EDLW-EPWA)Stone. Chang Latest Departure: SU2001 (EPWA-UUEE)Arthur. Kung
Scenery:
METAR : EPWA 190230Z VRB01KT 0500 0450W R33/0650D FG FEW004 04/04 Q1019 NOSIG

華沙蕭邦機場WAW

You are accessing this site from IP address 34.231.21.123. Virtual Airline. CMS by phpVMS.Website designed by Zumeweb and edited by Theo Bearman.
There is 0 User(s) Online: | and 392 Guest(s) Online.
All information on this site is for fight simulation purposes only. This site is for flight logging for pilots of Virtual Airline&模擬飛行論壇 FlySim only.